createdAt,value
2022-08-23T00:04:50.850Z,43.41
2022-08-23T00:09:36.149Z,43.53
2022-08-23T00:14:28.715Z,43.72
2022-08-23T00:19:21.408Z,43.63
2022-08-23T00:24:14.183Z,43.55
2022-08-23T00:29:06.861Z,43.38
2022-08-23T00:33:59.638Z,43.4
2022-08-23T00:38:52.185Z,43.59
2022-08-23T00:43:45.074Z,43.59
2022-08-23T00:48:37.730Z,43.38
2022-08-23T00:53:30.516Z,43.29
2022-08-23T00:58:23.246Z,43.39
2022-08-23T01:03:15.829Z,43.41
2022-08-23T01:08:08.455Z,43.22
2022-08-23T01:13:01.170Z,43.19
2022-08-23T01:17:53.810Z,43.18
2022-08-23T01:22:46.476Z,43.09
2022-08-23T01:27:39.176Z,43.11
2022-08-23T01:32:31.815Z,43.22
2022-08-23T01:37:24.559Z,43.05
2022-08-23T01:42:17.257Z,43.04
2022-08-23T01:52:02.724Z,42.98
2022-08-23T02:01:48.011Z,42.68
2022-08-23T02:06:40.641Z,42.85
2022-08-23T02:11:33.325Z,43.14
2022-08-23T02:16:26.170Z,43.1
2022-08-23T02:21:18.891Z,43
2022-08-23T02:26:11.548Z,42.88
2022-08-23T02:31:04.493Z,42.72
2022-08-23T02:35:57.212Z,42.6
2022-08-23T02:40:52.870Z,42.67
2022-08-23T02:45:42.647Z,42.7
2022-08-23T02:50:35.089Z,42.72
2022-08-23T02:55:27.866Z,42.47
2022-08-23T03:00:20.547Z,42.5
2022-08-23T03:05:13.109Z,42.6
2022-08-23T03:10:05.652Z,42.63
2022-08-23T03:14:58.554Z,42.41
2022-08-23T03:19:51.260Z,42.21
2022-08-23T03:24:43.903Z,42.21
2022-08-23T03:29:36.871Z,42.36
2022-08-23T03:34:29.473Z,42.28
2022-08-23T03:39:21.721Z,42.2
2022-08-23T03:44:14.378Z,42.13
2022-08-23T03:49:06.924Z,42.06
2022-08-23T03:53:59.638Z,42.12
2022-08-23T03:58:52.341Z,42.03
2022-08-23T04:03:45.084Z,41.82
2022-08-23T04:08:37.707Z,41.86
2022-08-23T04:13:30.296Z,42.06
2022-08-23T04:18:23.084Z,41.84
2022-08-23T04:23:15.921Z,41.67
2022-08-23T04:28:08.270Z,41.9
2022-08-23T04:33:01.587Z,41.73
2022-08-23T04:37:53.545Z,41.75
2022-08-23T04:42:46.246Z,41.75
2022-08-23T04:47:38.971Z,41.36
2022-08-23T04:52:31.083Z,40.05
2022-08-23T04:57:23.009Z,39.29
2022-08-23T05:02:15.171Z,39.71
2022-08-23T05:07:07.687Z,39.98
2022-08-23T05:12:00.291Z,40.2
2022-08-23T05:16:52.824Z,41.08
2022-08-23T05:21:45.366Z,41.8
2022-08-23T05:26:38.053Z,42.22
2022-08-23T05:31:30.950Z,43.47
2022-08-23T05:36:23.452Z,43.94
2022-08-23T05:41:16.301Z,44.62
2022-08-23T05:46:09.417Z,45.33
2022-08-23T05:51:00.788Z,45.44
2022-08-23T05:55:53.036Z,46.94
2022-08-23T06:00:45.883Z,46.29
2022-08-23T06:05:38.944Z,46.46
2022-08-23T06:10:31.374Z,47.59
2022-08-23T06:15:22.551Z,49.18
2022-08-23T06:20:15.439Z,50.17
2022-08-23T06:25:09.731Z,48.4
2022-08-23T06:30:01.199Z,50.22
2022-08-23T06:34:56.745Z,51.02
2022-08-23T06:39:45.758Z,49.85
2022-08-23T06:44:37.792Z,51.91
2022-08-23T06:49:30.093Z,49.98
2022-08-23T06:54:22.403Z,52.1
2022-08-23T06:59:15.564Z,50.53
2022-08-23T07:04:07.915Z,51.38
2022-08-23T07:09:00.062Z,50.88
2022-08-23T07:13:52.430Z,51.4
2022-08-23T07:18:45.330Z,54.45
2022-08-23T07:23:37.432Z,50.62
2022-08-23T07:28:30.471Z,51.7
2022-08-23T07:33:23.810Z,49.81
2022-08-23T07:38:15.883Z,49.04
2022-08-23T07:48:01.211Z,49.14
2022-08-23T07:57:46.364Z,48.98
2022-08-23T08:02:39.373Z,48.46
2022-08-23T08:07:33.139Z,47.87
2022-08-23T08:17:17.984Z,47.47
2022-08-23T08:22:10.735Z,47.46
2022-08-23T08:27:03.693Z,47.49
2022-08-23T08:31:56.329Z,47.21
2022-08-23T08:36:49.013Z,47.09
2022-08-23T08:41:41.489Z,46.8
2022-08-23T08:46:34.263Z,47.05
2022-08-23T08:51:26.947Z,46.85
2022-08-23T08:56:19.663Z,46.71
2022-08-23T09:01:12.223Z,46.48
2022-08-23T09:06:05.166Z,46.57
2022-08-23T09:10:58.374Z,46.56
2022-08-23T09:15:50.891Z,46.21
2022-08-23T09:20:43.974Z,46.23
2022-08-23T09:25:36.312Z,46.23
2022-08-23T09:30:28.913Z,46.08
2022-08-23T09:35:21.552Z,46.15
2022-08-23T09:40:14.533Z,46.28
2022-08-23T09:45:07.184Z,46.25
2022-08-23T09:49:59.989Z,46.24
2022-08-23T09:54:52.900Z,46.26
2022-08-23T09:59:45.506Z,46.58
2022-08-23T10:04:38.410Z,46.22
2022-08-23T10:09:31.087Z,46.29
2022-08-23T10:14:24.338Z,45.97
2022-08-23T10:19:16.462Z,45.99
2022-08-23T10:24:09.342Z,46.01
2022-08-23T10:29:02.016Z,45.83
2022-08-23T10:33:54.954Z,46.03
2022-08-23T10:38:51.689Z,46.06
2022-08-23T10:43:43.414Z,45.78
2022-08-23T10:48:36.093Z,45.79
2022-08-23T10:53:29.086Z,45.78
2022-08-23T10:58:21.765Z,45.75
2022-08-23T11:03:14.514Z,45.85
2022-08-23T11:08:07.192Z,45.73
2022-08-23T11:13:00.087Z,45.67
2022-08-23T11:17:53.053Z,45.67
2022-08-23T11:22:45.892Z,45.64
2022-08-23T11:27:38.341Z,45.35
2022-08-23T11:32:31.263Z,45.35
2022-08-23T11:37:24.064Z,45.13
2022-08-23T11:42:16.791Z,45.04
2022-08-23T11:47:09.574Z,44.95
2022-08-23T11:52:02.315Z,44.99
2022-08-23T11:56:55.081Z,44.92
2022-08-23T12:01:47.829Z,44.72
2022-08-23T12:06:40.657Z,44.57
2022-08-23T12:11:33.063Z,44.68
2022-08-23T12:16:25.734Z,44.48
2022-08-23T12:21:18.313Z,44.33
2022-08-23T12:26:10.889Z,44.29
2022-08-23T12:31:07.687Z,44.32
2022-08-23T12:35:55.896Z,44.29
2022-08-23T12:40:48.816Z,44.21
2022-08-23T12:45:41.495Z,44.12
2022-08-23T12:50:34.185Z,43.9
2022-08-23T12:55:27.030Z,43.78
2022-08-23T13:00:19.795Z,43.61
2022-08-23T13:05:13.570Z,43.53
2022-08-23T13:10:05.079Z,43.55
2022-08-23T13:14:58.142Z,43.19
2022-08-23T13:19:50.833Z,43.27
2022-08-23T13:24:43.490Z,43.03
2022-08-23T13:29:36.372Z,43.01
2022-08-23T13:34:29.099Z,43.13
2022-08-23T13:39:22.003Z,43.04
2022-08-23T13:44:19.015Z,43.3
2022-08-23T13:49:07.486Z,43.26
2022-08-23T13:54:00.090Z,43.26
2022-08-23T13:58:52.832Z,43.16
2022-08-23T14:03:45.705Z,43.28
2022-08-23T14:08:38.055Z,43.06
2022-08-23T14:13:31.178Z,43.1
2022-08-23T14:18:23.834Z,43.2
2022-08-23T14:23:16.571Z,43.2
2022-08-23T14:28:09.450Z,43.23
2022-08-23T14:33:02.080Z,43.23
2022-08-23T14:38:03.624Z,43.29
2022-08-23T14:42:47.536Z,42.99
2022-08-23T14:47:40.304Z,42.99
2022-08-23T14:52:33.026Z,43.04
2022-08-23T14:57:25.841Z,42.98
2022-08-23T15:02:18.558Z,42.66
2022-08-23T15:07:19.244Z,42.9
2022-08-23T15:16:56.690Z,42.55
2022-08-23T15:21:49.415Z,42.46
2022-08-23T15:26:42.262Z,42.27
2022-08-23T15:31:35.176Z,42.44
2022-08-23T15:36:27.768Z,42.8
2022-08-23T15:41:20.633Z,42.61
2022-08-23T15:51:06.102Z,42.75
2022-08-23T16:00:51.684Z,42.8
2022-08-23T16:05:44.259Z,42.65
2022-08-23T16:10:37.105Z,42.8
2022-08-23T16:15:29.875Z,42.72
2022-08-23T16:20:22.591Z,42.47
2022-08-23T16:25:15.323Z,42.35
2022-08-23T16:30:08.235Z,42.59
2022-08-23T16:35:01.022Z,42.41
2022-08-23T16:39:53.841Z,42.22
2022-08-23T16:44:45.847Z,42.3
2022-08-23T16:49:38.776Z,42.36
2022-08-23T16:54:31.584Z,42.28
2022-08-23T16:59:24.383Z,42.91
2022-08-23T17:04:17.135Z,42.8
2022-08-23T17:09:09.983Z,42.79
2022-08-23T17:14:04.876Z,42.55
2022-08-23T17:18:55.278Z,42.82
2022-08-23T17:23:47.893Z,42.52
2022-08-23T17:28:40.890Z,42.58
2022-08-23T17:33:33.648Z,42.67
2022-08-23T17:38:26.283Z,42.56
2022-08-23T17:43:19.182Z,42.5
2022-08-23T17:48:11.832Z,42.63
2022-08-23T17:53:04.588Z,42.67
2022-08-23T17:57:58.141Z,42.66
2022-08-23T18:02:50.181Z,42.65
2022-08-23T18:07:43.028Z,42.72
2022-08-23T18:12:35.758Z,42.68
2022-08-23T18:17:28.379Z,42.84
2022-08-23T18:22:21.131Z,42.84
2022-08-23T18:27:13.825Z,42.91
2022-08-23T18:32:06.575Z,43
2022-08-23T18:36:59.123Z,42.97
2022-08-23T18:41:51.877Z,42.96
2022-08-23T18:46:44.845Z,43.11
2022-08-23T18:51:37.502Z,42.99
2022-08-23T18:56:30.300Z,43.21
2022-08-23T19:01:23.174Z,43.29
2022-08-23T19:06:15.832Z,43.38
2022-08-23T19:11:08.411Z,43.41
2022-08-23T19:16:01.306Z,43.39
2022-08-23T19:20:53.927Z,43.38
2022-08-23T19:25:46.624Z,43.47
2022-08-23T19:30:40.596Z,43.43
2022-08-23T19:35:32.331Z,43.54
2022-08-23T19:40:24.970Z,43.53
2022-08-23T19:45:18.639Z,43.45
2022-08-23T19:50:10.415Z,43.5
2022-08-23T19:55:05.154Z,43.66
2022-08-23T19:59:55.652Z,43.52
2022-08-23T20:04:48.575Z,43.63
2022-08-23T20:09:41.410Z,43.57
2022-08-23T20:14:34.327Z,43.32
2022-08-23T20:19:26.981Z,43.35
2022-08-23T20:24:28.915Z,43.21
2022-08-23T20:29:11.997Z,43.31
2022-08-23T20:34:04.696Z,43.56
2022-08-23T20:38:57.362Z,43.29
2022-08-23T20:48:43.277Z,43.33
2022-08-23T20:58:27.924Z,43.32
2022-08-23T21:08:13.466Z,43.27
2022-08-23T21:13:06.813Z,43.36
2022-08-23T21:17:58.943Z,43.38
2022-08-23T21:22:51.803Z,43.29
2022-08-23T21:27:44.371Z,43.38
2022-08-23T21:32:37.038Z,43.31
2022-08-23T21:37:29.750Z,43.25
2022-08-23T21:42:23.781Z,43.37
2022-08-23T21:47:15.276Z,43.59
2022-08-23T21:52:08.007Z,43.4
2022-08-23T21:56:54.563Z,43.37
2022-08-23T22:01:51.563Z,43.44
2022-08-23T22:06:44.223Z,43.65
2022-08-23T22:11:36.973Z,43.46
2022-08-23T22:16:29.558Z,43.45
2022-08-23T22:21:22.232Z,43.35
2022-08-23T22:26:15.035Z,43.14
2022-08-23T22:31:07.657Z,43.58
2022-08-23T22:36:00.167Z,43.42
2022-08-23T22:40:52.890Z,43.33
2022-08-23T22:45:45.660Z,43.37
2022-08-23T22:50:38.089Z,43.6
2022-08-23T22:55:30.742Z,43.42
2022-08-23T23:00:23.535Z,43.54
2022-08-23T23:05:16.169Z,43.63
2022-08-23T23:10:08.837Z,43.59
2022-08-23T23:15:01.603Z,43.5
2022-08-23T23:19:54.052Z,43.44
2022-08-23T23:24:46.710Z,43.48
2022-08-23T23:29:39.460Z,43.67
2022-08-23T23:34:31.975Z,43.58
2022-08-23T23:39:24.619Z,43.61
2022-08-23T23:44:22.595Z,43.38
2022-08-23T23:49:10.053Z,43.5
2022-08-23T23:54:02.637Z,43.41
2022-08-23T23:58:55.499Z,43.48
